createdAt,value
2017-12-11T00:01:24.430Z,5.17
2017-12-11T00:03:51.900Z,5.63
2017-12-11T00:06:19.378Z,4.00
2017-12-11T00:08:46.846Z,5.40
2017-12-11T00:11:14.341Z,6.60
2017-12-11T00:13:41.886Z,6.20
2017-12-11T00:16:10.126Z,4.73
2017-12-11T00:18:38.416Z,6.67
2017-12-11T00:21:06.624Z,6.13
2017-12-11T00:23:34.161Z,6.70
2017-12-11T00:26:01.606Z,5.73
2017-12-11T00:28:29.865Z,6.20
2017-12-11T00:30:57.326Z,6.57
2017-12-11T00:33:26.356Z,6.20
2017-12-11T00:35:53.824Z,7.20
2017-12-11T00:38:21.293Z,7.60
2017-12-11T00:40:48.795Z,6.30
2017-12-11T00:43:16.241Z,5.97
2017-12-11T00:45:43.771Z,6.13
2017-12-11T00:48:11.250Z,5.40
2017-12-11T00:50:38.779Z,7.17
2017-12-11T00:53:06.254Z,5.43
2017-12-11T00:55:36.115Z,5.60
2017-12-11T00:58:03.577Z,7.60
2017-12-11T01:00:31.069Z,6.00
2017-12-11T01:02:58.487Z,5.17
2017-12-11T01:05:26.734Z,3.83
2017-12-11T01:07:54.193Z,5.87
2017-12-11T01:10:22.416Z,9.90
2017-12-11T01:12:49.921Z,6.40
2017-12-11T01:15:17.436Z,4.90
2017-12-11T01:17:44.976Z,5.83
2017-12-11T01:20:13.263Z,5.90
2017-12-11T01:22:42.201Z,5.40
2017-12-11T01:25:09.724Z,6.80
2017-12-11T01:27:37.175Z,7.30
2017-12-11T01:30:04.779Z,6.00
2017-12-11T01:32:33.052Z,5.40
2017-12-11T01:35:00.550Z,5.57
2017-12-11T01:37:28.771Z,5.47
2017-12-11T01:39:56.409Z,5.53
2017-12-11T01:42:23.885Z,6.57
2017-12-11T01:44:52.136Z,7.20
2017-12-11T01:47:19.554Z,6.67
2017-12-11T01:49:47.149Z,7.20
2017-12-11T01:52:14.785Z,6.40
2017-12-11T01:54:42.249Z,6.23
2017-12-11T01:57:09.707Z,6.87
2017-12-11T01:59:37.236Z,8.90
2017-12-11T02:02:04.713Z,7.60
2017-12-11T02:04:32.942Z,5.63
2017-12-11T02:07:00.554Z,5.67
2017-12-11T02:09:28.789Z,5.17
2017-12-11T02:11:56.318Z,5.23
2017-12-11T02:14:24.085Z,4.63
2017-12-11T02:16:51.580Z,5.40
2017-12-11T02:19:19.814Z,5.67
2017-12-11T02:21:48.046Z,6.20
2017-12-11T02:24:15.515Z,5.40
2017-12-11T02:26:42.972Z,5.50
2017-12-11T02:29:10.480Z,6.03
2017-12-11T02:31:38.752Z,5.80
2017-12-11T02:34:06.972Z,6.40
2017-12-11T02:36:34.412Z,6.73
2017-12-11T02:39:01.895Z,6.57
2017-12-11T02:41:29.374Z,7.70
2017-12-11T02:43:56.860Z,5.53
2017-12-11T02:46:24.313Z,6.77
2017-12-11T02:48:51.790Z,5.80
2017-12-11T02:51:20.034Z,6.73
2017-12-11T02:53:47.549Z,6.80
2017-12-11T02:56:15.818Z,7.43
2017-12-11T02:58:43.287Z,8.43
2017-12-11T03:01:10.766Z,7.07
2017-12-11T03:03:39.025Z,6.83
2017-12-11T03:06:06.467Z,6.80
2017-12-11T03:08:33.917Z,6.67
2017-12-11T03:11:01.414Z,6.50
2017-12-11T03:13:28.876Z,6.03
2017-12-11T03:15:57.114Z,6.30
2017-12-11T03:18:24.555Z,7.37
2017-12-11T03:20:52.037Z,6.60
2017-12-11T03:23:19.461Z,5.53
2017-12-11T03:25:47.760Z,5.43
2017-12-11T03:28:15.224Z,5.60
2017-12-11T03:30:42.712Z,5.00
2017-12-11T03:33:10.177Z,6.40
2017-12-11T03:35:37.661Z,5.77
2017-12-11T03:38:05.901Z,5.30
2017-12-11T03:40:33.407Z,11.63
2017-12-11T03:43:00.844Z,5.20
2017-12-11T03:45:28.376Z,4.77
2017-12-11T03:47:55.780Z,5.93
2017-12-11T03:50:23.257Z,6.90
2017-12-11T03:52:50.726Z,6.93
2017-12-11T03:55:18.205Z,7.67
2017-12-11T03:57:46.436Z,7.30
2017-12-11T04:00:14.054Z,6.17
2017-12-11T04:02:42.302Z,12.87
2017-12-11T04:05:09.744Z,9.03
2017-12-11T04:07:37.208Z,8.83
2017-12-11T04:10:04.666Z,9.77
2017-12-11T04:12:32.155Z,8.13
2017-12-11T04:14:59.656Z,10.37
2017-12-11T04:17:27.095Z,5.63
2017-12-11T04:19:55.334Z,8.10
2017-12-11T04:22:22.834Z,6.50
2017-12-11T04:24:50.330Z,6.47
2017-12-11T04:27:17.816Z,6.90
2017-12-11T04:29:45.265Z,8.03
2017-12-11T04:32:12.758Z,7.30
2017-12-11T04:34:40.211Z,8.70
2017-12-11T04:37:07.691Z,7.90
2017-12-11T04:39:35.141Z,8.07
2017-12-11T04:42:02.591Z,9.70
2017-12-11T04:44:30.055Z,8.73
2017-12-11T04:46:57.554Z,9.53
2017-12-11T04:49:25.073Z,8.80
2017-12-11T04:51:52.547Z,6.80
2017-12-11T04:54:20.011Z,7.47
2017-12-11T04:56:47.492Z,7.17
2017-12-11T04:59:16.512Z,9.53
2017-12-11T05:01:44.746Z,7.57
2017-12-11T05:04:12.263Z,7.53
2017-12-11T05:06:40.479Z,10.27
2017-12-11T05:09:07.968Z,9.73
2017-12-11T05:11:35.587Z,10.97
2017-12-11T05:14:03.186Z,7.47
2017-12-11T05:16:31.463Z,9.93
2017-12-11T05:18:58.963Z,8.17
2017-12-11T05:21:26.555Z,10.43
2017-12-11T05:23:54.853Z,10.43
2017-12-11T05:26:22.368Z,10.90
2017-12-11T05:28:49.878Z,7.83
2017-12-11T05:31:18.075Z,6.90
2017-12-11T05:33:45.675Z,6.47
2017-12-11T05:36:13.933Z,6.80
2017-12-11T05:38:41.498Z,10.60
2017-12-11T05:41:08.968Z,7.27
2017-12-11T05:43:36.550Z,7.03
2017-12-11T05:46:04.033Z,5.67
2017-12-11T05:48:32.302Z,7.33
2017-12-11T05:50:59.825Z,7.80
2017-12-11T05:53:27.298Z,7.07
2017-12-11T05:55:54.783Z,8.00
2017-12-11T05:58:22.254Z,7.53
2017-12-11T06:00:50.596Z,7.33
2017-12-11T06:03:18.154Z,6.70
2017-12-11T06:05:45.659Z,7.20
2017-12-11T06:08:13.158Z,6.90
2017-12-11T06:10:40.627Z,7.57
2017-12-11T06:13:08.219Z,7.00
2017-12-11T06:15:35.731Z,5.97
2017-12-11T06:18:03.166Z,8.47
2017-12-11T06:20:30.685Z,9.40
2017-12-11T06:22:58.352Z,7.93
2017-12-11T06:25:25.823Z,9.00
2017-12-11T06:27:53.332Z,7.17
2017-12-11T06:30:21.544Z,8.40
2017-12-11T06:32:49.170Z,8.17
2017-12-11T06:35:16.588Z,11.90
2017-12-11T06:37:44.070Z,7.83
2017-12-11T06:40:11.556Z,7.50
2017-12-11T06:42:39.071Z,8.57
2017-12-11T06:45:07.286Z,9.87
2017-12-11T06:47:34.764Z,12.13
2017-12-11T06:50:02.280Z,9.77
2017-12-11T06:52:29.752Z,10.60
2017-12-11T06:54:57.254Z,9.50
2017-12-11T06:57:24.756Z,16.27
2017-12-11T06:59:52.219Z,11.47
2017-12-11T07:02:19.662Z,14.17
2017-12-11T07:04:47.146Z,9.30
2017-12-11T07:07:14.662Z,12.03
2017-12-11T07:09:42.149Z,9.37
2017-12-11T07:12:10.375Z,10.20
2017-12-11T07:14:37.859Z,13.47
2017-12-11T07:17:05.302Z,11.87
2017-12-11T07:19:32.771Z,8.67
2017-12-11T07:22:00.260Z,13.43
2017-12-11T07:24:28.500Z,19.57
2017-12-11T07:26:56.004Z,12.50
2017-12-11T07:29:23.453Z,15.17
2017-12-11T07:31:50.914Z,14.80
2017-12-11T07:34:19.214Z,14.93
2017-12-11T07:36:46.717Z,21.30
2017-12-11T07:39:14.257Z,18.60
2017-12-11T07:41:41.683Z,9.90
2017-12-11T07:44:09.201Z,10.57
2017-12-11T07:46:36.709Z,12.87
2017-12-11T07:49:05.678Z,12.70
2017-12-11T07:51:33.163Z,13.37
2017-12-11T07:54:00.629Z,13.10
2017-12-11T07:56:28.146Z,18.80
2017-12-11T07:58:55.605Z,15.57
2017-12-11T08:01:23.040Z,20.70
2017-12-11T08:03:51.337Z,14.00
2017-12-11T08:06:19.560Z,17.70
2017-12-11T08:08:47.071Z,13.87
2017-12-11T08:11:15.336Z,15.97
2017-12-11T08:13:42.823Z,15.10
2017-12-11T08:16:11.042Z,18.00
2017-12-11T08:18:38.532Z,11.87
2017-12-11T08:21:06.036Z,13.37
2017-12-11T08:23:33.485Z,11.47
2017-12-11T08:26:01.721Z,15.80
2017-12-11T08:28:29.184Z,14.77
2017-12-11T08:30:56.631Z,11.73
2017-12-11T08:33:24.105Z,10.17
2017-12-11T08:35:51.568Z,10.97
2017-12-11T08:38:19.067Z,15.07
2017-12-11T08:40:47.276Z,14.10
2017-12-11T08:43:14.868Z,14.07
2017-12-11T08:45:43.117Z,11.97
2017-12-11T08:48:10.662Z,13.83
2017-12-11T08:50:38.092Z,17.30
2017-12-11T08:53:05.577Z,16.20
2017-12-11T08:55:33.054Z,13.83
2017-12-11T08:58:01.305Z,14.13
2017-12-11T09:00:28.854Z,16.00
2017-12-11T09:02:56.266Z,13.23
2017-12-11T09:05:24.509Z,13.80
2017-12-11T09:07:52.730Z,17.07
2017-12-11T09:10:20.199Z,12.30
2017-12-11T09:12:47.668Z,12.77
2017-12-11T09:15:15.130Z,19.30
2017-12-11T09:17:42.625Z,13.50
2017-12-11T09:20:10.239Z,12.77
2017-12-11T09:22:38.452Z,17.40
2017-12-11T09:25:05.905Z,15.30
2017-12-11T09:27:33.396Z,21.30
2017-12-11T09:30:00.881Z,14.07
2017-12-11T09:32:28.359Z,17.27
2017-12-11T09:34:55.825Z,15.23
2017-12-11T09:37:24.060Z,13.37
2017-12-11T09:39:51.547Z,12.63
2017-12-11T09:42:19.016Z,17.47
2017-12-11T09:44:46.484Z,17.30
2017-12-11T09:47:14.736Z,10.43
2017-12-11T09:49:42.201Z,5.93
2017-12-11T09:52:10.417Z,14.00
2017-12-11T09:54:38.691Z,15.33
2017-12-11T09:57:06.951Z,16.77
2017-12-11T09:59:36.075Z,17.93
2017-12-11T10:02:04.381Z,16.10
2017-12-11T10:04:31.806Z,19.97
2017-12-11T10:07:00.071Z,20.60
2017-12-11T10:09:27.524Z,17.33
2017-12-11T10:11:54.999Z,14.97
2017-12-11T10:14:22.484Z,17.33
2017-12-11T10:16:50.732Z,15.40
2017-12-11T10:19:18.228Z,14.10
2017-12-11T10:21:46.406Z,11.40
2017-12-11T10:24:13.902Z,16.97
2017-12-11T10:26:41.377Z,16.73
2017-12-11T10:29:08.845Z,13.00
2017-12-11T10:31:36.357Z,17.20
2017-12-11T10:34:04.613Z,18.20
2017-12-11T10:36:32.068Z,12.40
2017-12-11T10:38:59.547Z,15.00
2017-12-11T10:41:26.998Z,12.67
2017-12-11T10:43:54.513Z,15.13
2017-12-11T10:46:22.052Z,15.87
2017-12-11T10:48:49.510Z,11.17
2017-12-11T10:51:17.720Z,14.57
2017-12-11T10:53:45.175Z,16.27
2017-12-11T10:56:12.653Z,13.43
2017-12-11T10:58:40.409Z,17.90
2017-12-11T11:01:07.918Z,12.43
2017-12-11T11:03:35.410Z,13.83
2017-12-11T11:06:03.625Z,7.97
2017-12-11T11:08:31.147Z,11.80
2017-12-11T11:10:59.372Z,20.23
2017-12-11T11:13:26.895Z,15.67
2017-12-11T11:15:54.372Z,13.97
2017-12-11T11:18:21.856Z,14.73
2017-12-11T11:20:49.442Z,16.10
2017-12-11T11:23:16.865Z,21.10
2017-12-11T11:25:44.356Z,17.83
2017-12-11T11:28:11.880Z,16.70
2017-12-11T11:30:40.101Z,12.47
2017-12-11T11:33:07.549Z,19.07
2017-12-11T11:35:35.060Z,15.70
2017-12-11T11:38:02.483Z,17.20
2017-12-11T11:40:30.007Z,13.70
2017-12-11T11:42:58.211Z,19.20
2017-12-11T11:45:25.717Z,13.17
2017-12-11T11:47:53.182Z,15.40
2017-12-11T11:50:20.717Z,14.97
2017-12-11T11:52:48.200Z,20.57
2017-12-11T11:55:15.658Z,13.63
2017-12-11T11:57:43.142Z,13.80
2017-12-11T12:00:10.650Z,14.87
2017-12-11T12:02:38.277Z,9.80
2017-12-11T12:05:05.774Z,15.93
2017-12-11T12:07:33.237Z,12.80
2017-12-11T12:10:00.745Z,14.90
2017-12-11T12:12:28.264Z,11.27
2017-12-11T12:14:55.756Z,11.17
2017-12-11T12:17:23.250Z,13.43
2017-12-11T12:19:50.737Z,13.10
2017-12-11T12:22:18.193Z,13.50
2017-12-11T12:24:46.476Z,15.67
2017-12-11T12:27:14.721Z,11.00
2017-12-11T12:29:42.193Z,13.33
2017-12-11T12:32:09.724Z,16.80
2017-12-11T12:34:37.255Z,11.67
2017-12-11T12:37:04.718Z,12.50
2017-12-11T12:39:32.179Z,18.33
2017-12-11T12:41:59.673Z,13.57
2017-12-11T12:44:27.134Z,14.47
2017-12-11T12:46:54.687Z,13.97
2017-12-11T12:49:22.394Z,18.27
2017-12-11T12:51:49.891Z,14.40
2017-12-11T12:54:18.199Z,14.80
2017-12-11T12:56:45.723Z,11.40
2017-12-11T12:59:13.986Z,10.80
2017-12-11T13:01:41.634Z,14.80
2017-12-11T13:04:09.129Z,13.90
2017-12-11T13:06:36.607Z,18.03
2017-12-11T13:09:04.114Z,21.40
2017-12-11T13:11:31.621Z,22.60
2017-12-11T13:13:59.082Z,19.70
2017-12-11T13:16:26.647Z,19.70
2017-12-11T13:18:54.100Z,12.90
2017-12-11T13:21:21.694Z,11.37
2017-12-11T13:23:49.999Z,17.70
2017-12-11T13:26:17.528Z,11.23
2017-12-11T13:28:45.756Z,9.93
2017-12-11T13:31:13.282Z,11.57
2017-12-11T13:33:40.785Z,11.80
2017-12-11T13:36:08.251Z,8.70
2017-12-11T13:38:35.809Z,8.13
2017-12-11T13:41:03.256Z,8.77
2017-12-11T13:43:30.717Z,10.20
2017-12-11T13:45:58.219Z,14.37
2017-12-11T13:48:25.664Z,8.03
2017-12-11T13:50:53.265Z,13.77
2017-12-11T13:53:20.768Z,9.60
2017-12-11T13:55:48.986Z,8.97
2017-12-11T13:58:16.551Z,11.60
2017-12-11T14:00:43.993Z,10.37
2017-12-11T14:03:11.489Z,10.20
2017-12-11T14:05:40.475Z,6.60
2017-12-11T14:08:07.956Z,8.70
2017-12-11T14:10:35.457Z,11.13
2017-12-11T14:13:02.893Z,9.30
2017-12-11T14:15:31.180Z,11.60
2017-12-11T14:17:59.442Z,11.93
2017-12-11T14:20:26.930Z,7.10
2017-12-11T14:22:54.495Z,8.93
2017-12-11T14:25:21.964Z,7.73
2017-12-11T14:27:49.513Z,6.70
2017-12-11T14:30:17.766Z,7.60
2017-12-11T14:32:45.215Z,11.80
2017-12-11T14:35:12.706Z,10.50
2017-12-11T14:37:40.958Z,7.00
2017-12-11T14:40:08.428Z,8.33
2017-12-11T14:42:35.922Z,8.33
2017-12-11T14:45:03.447Z,7.67
2017-12-11T14:47:30.901Z,8.33
2017-12-11T14:49:58.418Z,5.80
2017-12-11T14:52:25.871Z,4.13
2017-12-11T14:54:54.655Z,8.50
2017-12-11T14:57:22.070Z,7.53
2017-12-11T14:59:49.561Z,8.10
2017-12-11T15:02:17.067Z,8.33
2017-12-11T15:04:44.493Z,8.60
2017-12-11T15:07:12.099Z,8.03
2017-12-11T15:09:39.610Z,8.47
2017-12-11T15:12:07.101Z,7.53
2017-12-11T15:14:34.598Z,7.43
2017-12-11T15:17:02.086Z,7.57
2017-12-11T15:19:29.638Z,6.47
2017-12-11T15:21:57.882Z,6.57
2017-12-11T15:24:26.167Z,7.87
2017-12-11T15:26:54.467Z,10.83
2017-12-11T15:29:21.857Z,8.70
2017-12-11T15:31:49.315Z,7.67
2017-12-11T15:34:16.765Z,9.13
2017-12-11T15:36:44.266Z,8.20
2017-12-11T15:39:11.758Z,11.10
2017-12-11T15:41:39.984Z,10.57
2017-12-11T15:44:07.507Z,11.00
2017-12-11T15:46:34.999Z,17.73
2017-12-11T15:49:02.470Z,11.43
2017-12-11T15:51:30.034Z,11.03
2017-12-11T15:53:57.517Z,12.80
2017-12-11T15:56:24.963Z,12.10
2017-12-11T15:58:52.445Z,12.27
2017-12-11T16:01:19.900Z,11.47
2017-12-11T16:03:47.372Z,12.00
2017-12-11T16:06:14.858Z,16.57
2017-12-11T16:08:43.122Z,13.30
2017-12-11T16:11:11.408Z,18.60
2017-12-11T16:13:39.644Z,41.87
2017-12-11T16:16:07.138Z,24.10
2017-12-11T16:18:34.605Z,10.93
2017-12-11T16:21:02.059Z,11.17
2017-12-11T16:23:29.558Z,6.40
2017-12-11T16:25:57.074Z,8.07
2017-12-11T16:28:24.533Z,6.33
2017-12-11T16:30:52.001Z,8.07
2017-12-11T16:33:20.262Z,8.20
2017-12-11T16:35:47.699Z,9.40
2017-12-11T16:38:15.250Z,14.23
2017-12-11T16:40:42.799Z,13.37
2017-12-11T16:43:11.082Z,7.40
2017-12-11T16:45:38.568Z,8.03
2017-12-11T16:48:06.011Z,8.07
2017-12-11T16:50:33.496Z,8.17
2017-12-11T16:53:00.969Z,7.33
2017-12-11T16:55:28.506Z,8.10
2017-12-11T16:57:56.792Z,8.83
2017-12-11T17:00:24.294Z,9.83
2017-12-11T17:02:52.551Z,13.80
2017-12-11T17:05:20.130Z,20.57
2017-12-11T17:07:50.598Z,11.87
2017-12-11T17:10:18.134Z,11.77
2017-12-11T17:12:45.610Z,9.37
2017-12-11T17:15:13.100Z,7.60
2017-12-11T17:17:40.599Z,7.90
2017-12-11T17:20:08.049Z,11.97
2017-12-11T17:22:35.620Z,8.77
2017-12-11T17:25:03.123Z,7.23
2017-12-11T17:27:30.587Z,9.50
2017-12-11T17:29:58.034Z,9.20
2017-12-11T17:32:25.570Z,10.63
2017-12-11T17:34:53.068Z,7.90
2017-12-11T17:37:20.588Z,11.50
2017-12-11T17:39:48.851Z,7.53
2017-12-11T17:42:16.341Z,8.90
2017-12-11T17:44:43.774Z,9.70
2017-12-11T17:47:11.207Z,7.80
2017-12-11T17:49:38.734Z,11.20
2017-12-11T17:52:06.284Z,14.00
2017-12-11T17:54:33.681Z,8.07
2017-12-11T17:57:01.171Z,24.47
2017-12-11T17:59:28.685Z,8.33
2017-12-11T18:01:56.157Z,11.67
2017-12-11T18:04:23.678Z,12.10
2017-12-11T18:06:51.928Z,23.87
2017-12-11T18:09:19.451Z,16.97
2017-12-11T18:11:46.918Z,19.47
2017-12-11T18:14:14.444Z,12.10
2017-12-11T18:16:41.936Z,9.30
2017-12-11T18:19:09.407Z,7.40
2017-12-11T18:21:36.954Z,7.70
2017-12-11T18:24:04.446Z,7.90
2017-12-11T18:26:31.945Z,10.43
2017-12-11T18:28:59.448Z,7.73
2017-12-11T18:31:26.970Z,7.97
2017-12-11T18:33:54.423Z,11.27
2017-12-11T18:36:21.943Z,13.07
2017-12-11T18:38:49.406Z,10.23
2017-12-11T18:41:16.941Z,9.17
2017-12-11T18:43:45.294Z,12.13
2017-12-11T18:46:12.731Z,11.07
2017-12-11T18:48:40.470Z,9.53
2017-12-11T18:51:08.042Z,9.10
2017-12-11T18:53:35.736Z,7.67
2017-12-11T18:56:03.226Z,5.37
2017-12-11T18:58:30.733Z,4.87
2017-12-11T19:00:59.190Z,3.00
2017-12-11T19:03:26.906Z,5.83
2017-12-11T19:05:54.621Z,3.70
2017-12-11T19:08:22.490Z,3.43
2017-12-11T19:10:50.125Z,3.20
2017-12-11T19:13:18.304Z,6.40
2017-12-11T19:15:45.808Z,3.03
2017-12-11T19:18:13.279Z,3.00
2017-12-11T19:20:41.594Z,3.23
2017-12-11T19:23:09.114Z,3.07
2017-12-11T19:25:36.600Z,2.60
2017-12-11T19:28:04.121Z,2.47
2017-12-11T19:30:31.605Z,3.97
2017-12-11T19:32:59.879Z,3.83
2017-12-11T19:35:27.588Z,3.43
2017-12-11T19:37:55.121Z,2.60
2017-12-11T19:40:23.461Z,1.90
2017-12-11T19:42:50.917Z,1.73
2017-12-11T19:45:18.441Z,2.70
2017-12-11T19:47:46.664Z,1.80
2017-12-11T19:50:14.184Z,3.43
2017-12-11T19:52:42.541Z,2.00
2017-12-11T19:55:10.723Z,2.23
2017-12-11T19:57:38.938Z,3.47
2017-12-11T20:00:06.715Z,2.43
2017-12-11T20:02:34.174Z,2.13
2017-12-11T20:05:01.947Z,3.20
2017-12-11T20:07:29.433Z,2.70
2017-12-11T20:09:57.068Z,2.80
2017-12-11T20:12:25.662Z,3.30
2017-12-11T20:14:53.144Z,4.27
2017-12-11T20:17:20.611Z,3.83
2017-12-11T20:19:48.092Z,3.77
2017-12-11T20:22:15.826Z,7.13
2017-12-11T20:24:43.325Z,3.77
2017-12-11T20:27:10.822Z,4.23
2017-12-11T20:29:38.754Z,5.03
2017-12-11T20:32:06.486Z,4.77
2017-12-11T20:34:33.958Z,6.83
2017-12-11T20:37:01.523Z,5.23
2017-12-11T20:39:29.990Z,4.63
2017-12-11T20:41:57.865Z,3.47
2017-12-11T20:44:25.748Z,4.03
2017-12-11T20:46:53.196Z,7.33
2017-12-11T20:49:20.664Z,4.43
2017-12-11T20:51:48.192Z,5.50
2017-12-11T20:54:15.717Z,4.30
2017-12-11T20:56:43.186Z,3.03
2017-12-11T20:59:10.840Z,2.47
2017-12-11T21:01:38.307Z,1.10
2017-12-11T21:04:05.786Z,2.53
2017-12-11T21:06:33.361Z,2.83
2017-12-11T21:09:00.841Z,3.13
2017-12-11T21:11:28.441Z,1.33
2017-12-11T21:13:55.930Z,2.67
2017-12-11T21:16:23.429Z,2.60
2017-12-11T21:18:51.654Z,1.83
2017-12-11T21:21:19.103Z,1.97
2017-12-11T21:23:46.613Z,4.60
2017-12-11T21:26:14.076Z,2.83
2017-12-11T21:28:41.606Z,5.13
2017-12-11T21:31:09.852Z,4.13
2017-12-11T21:33:38.101Z,2.77
2017-12-11T21:36:05.665Z,2.90
2017-12-11T21:38:33.132Z,4.80
2017-12-11T21:41:00.641Z,3.13
2017-12-11T21:43:28.087Z,6.60
2017-12-11T21:45:56.338Z,4.10
2017-12-11T21:48:23.995Z,14.07
2017-12-11T21:50:51.447Z,4.97
2017-12-11T21:53:18.931Z,4.77
2017-12-11T21:55:46.423Z,9.00
2017-12-11T21:58:14.702Z,4.90
2017-12-11T22:00:42.288Z,5.20
2017-12-11T22:03:09.746Z,8.97
2017-12-11T22:05:37.255Z,4.77
2017-12-11T22:08:05.571Z,7.70
2017-12-11T22:10:33.020Z,3.67
2017-12-11T22:13:00.571Z,4.67
2017-12-11T22:15:28.086Z,4.53
2017-12-11T22:17:55.527Z,4.37
2017-12-11T22:20:23.063Z,3.77
2017-12-11T22:22:50.542Z,6.90
2017-12-11T22:25:18.806Z,3.47
2017-12-11T22:27:46.494Z,4.13
2017-12-11T22:30:14.776Z,2.03
2017-12-11T22:32:42.258Z,2.90
2017-12-11T22:35:09.791Z,6.80
2017-12-11T22:37:37.212Z,1.93
2017-12-11T22:40:04.838Z,2.43
2017-12-11T22:42:33.049Z,2.30
2017-12-11T22:45:00.674Z,2.60
2017-12-11T22:47:28.144Z,6.50
2017-12-11T22:49:55.602Z,3.30
2017-12-11T22:52:23.850Z,3.27
2017-12-11T22:54:51.391Z,6.70
2017-12-11T22:57:18.855Z,3.53
2017-12-11T22:59:46.321Z,5.13
2017-12-11T23:02:14.090Z,3.70
2017-12-11T23:04:41.784Z,5.00
2017-12-11T23:07:09.210Z,4.43
2017-12-11T23:09:36.747Z,4.53
2017-12-11T23:12:04.186Z,2.77
2017-12-11T23:14:32.432Z,2.90
2017-12-11T23:16:59.962Z,3.67
2017-12-11T23:19:27.503Z,3.10
2017-12-11T23:21:54.939Z,4.47
2017-12-11T23:24:22.490Z,4.00
2017-12-11T23:26:49.963Z,2.23
2017-12-11T23:29:17.548Z,2.37
2017-12-11T23:31:45.760Z,2.27
2017-12-11T23:34:13.251Z,2.50
2017-12-11T23:36:40.735Z,1.80
2017-12-11T23:39:08.218Z,2.90
2017-12-11T23:41:35.790Z,2.10
2017-12-11T23:44:04.125Z,1.67
2017-12-11T23:46:31.590Z,1.70
2017-12-11T23:48:59.050Z,2.20
2017-12-11T23:51:26.509Z,1.60
2017-12-11T23:53:53.995Z,3.33
2017-12-11T23:56:21.466Z,1.77
2017-12-11T23:58:48.954Z,1.70
